Time;durP1;ratioP1;P1;durP2;ratioP2;P2;SDS_P1;SDS_P2;PMS_P1;PMS_P2;Temp;Humidity;BMP_temperature;BMP_pressure;BME280_temperature;BME280_humidity;BME280_pressure;Samples;Min_cycle;Max_cycle;Signal;HPM_P1;HPM_P2
2022/10/20 00:02:18;;;;;;;4.22;1.00;;;;;;;;;;5017659;27;93775;-74
2022/10/20 00:04:45;;;;;;;3.60;0.98;;;;;;;;;;5054091;27;95202;-74
2022/10/20 00:07:11;;;;;;;2.00;0.77;;;;;;;;;;5057344;27;95504;-74
2022/10/20 00:09:37;;;;;;;1.80;1.00;;;;;;;;;;5059106;27;93717;-74
2022/10/20 00:12:04;;;;;;;4.80;1.20;;;;;;;;;;5037314;27;94467;-74
2022/10/20 00:14:30;;;;;;;0.98;0.90;;;;;;;;;;5054118;27;93464;-74
2022/10/20 00:16:58;;;;;;;2.28;0.80;;;;;;;;;;5055154;27;92505;-74
2022/10/20 00:19:25;;;;;;;4.30;1.17;;;;;;;;;;5055862;27;94992;-74
2022/10/20 00:21:51;;;;;;;3.83;1.20;;;;;;;;;;5054473;27;92676;-74
2022/10/20 00:24:20;;;;;;;5.75;1.30;;;;;;;;;;5055325;27;92485;-74
2022/10/20 00:26:46;;;;;;;3.58;0.93;;;;;;;;;;5055893;27;92501;-75
2022/10/20 00:29:12;;;;;;;1.58;0.70;;;;;;;;;;5035478;27;95798;-74
2022/10/20 00:31:39;;;;;;;4.22;1.48;;;;;;;;;;5057813;27;92499;-74
2022/10/20 00:34:05;;;;;;;5.30;1.00;;;;;;;;;;5039212;27;94835;-74
2022/10/20 00:36:31;;;;;;;4.13;1.00;;;;;;;;;;5053621;27;92598;-74
2022/10/20 00:38:59;;;;;;;4.07;1.27;;;;;;;;;;5052952;27;93950;-74
2022/10/20 00:41:26;;;;;;;4.28;1.08;;;;;;;;;;5031256;27;94503;-74
2022/10/20 00:43:53;;;;;;;4.30;1.10;;;;;;;;;;5053153;27;92478;-74
2022/10/20 00:46:21;;;;;;;2.90;1.02;;;;;;;;;;5055281;27;93236;-74
2022/10/20 00:48:50;;;;;;;4.68;1.20;;;;;;;;;;5053350;27;93378;-74
2022/10/20 00:51:18;;;;;;;4.53;1.17;;;;;;;;;;5036038;27;92606;-74
2022/10/20 00:53:45;;;;;;;3.22;0.85;;;;;;;;;;5037632;27;94976;-74
2022/10/20 00:56:11;;;;;;;3.70;0.95;;;;;;;;;;5053865;27;92463;-74
2022/10/20 00:58:38;;;;;;;3.45;0.98;;;;;;;;;;5055248;27;94030;-74
2022/10/20 01:01:04;;;;;;;1.52;0.90;;;;;;;;;;5053823;27;93466;-74
2022/10/20 01:03:34;;;;;;;2.30;1.08;;;;;;;;;;5035915;27;92555;-74
2022/10/20 01:06:00;;;;;;;2.17;1.20;;;;;;;;;;5053156;27;93470;-74
2022/10/20 01:08:26;;;;;;;1.55;0.80;;;;;;;;;;5055128;27;93559;-74
2022/10/20 01:11:11;;;;;;;1.95;0.90;;;;;;;;;;5055560;27;92507;-74
2022/10/20 01:13:37;;;;;;;2.20;1.20;;;;;;;;;;5054239;27;92480;-74
2022/10/20 01:16:22;;;;;;;3.22;0.90;;;;;;;;;;5058620;27;93783;-74
2022/10/20 01:18:57;;;;;;;2.25;1.10;;;;;;;;;;5053919;27;95598;-74
2022/10/20 01:21:34;;;;;;;5.05;1.00;;;;;;;;;;5053169;27;97276;-75
2022/10/20 01:24:10;;;;;;;4.75;1.30;;;;;;;;;;5055199;27;92494;-74
2022/10/20 01:26:56;;;;;;;0.98;0.80;;;;;;;;;;5054191;27;97240;-74
2022/10/20 01:29:36;;;;;;;1.15;0.85;;;;;;;;;;5054130;27;93476;-74
2022/10/20 01:32:21;;;;;;;2.05;1.13;;;;;;;;;;5051842;27;92448;-74
2022/10/20 01:34:53;;;;;;;2.15;0.88;;;;;;;;;;5037243;27;94758;-74
2022/10/20 01:37:27;;;;;;;1.95;0.90;;;;;;;;;;5056901;27;92723;-74
2022/10/20 01:40:17;;;;;;;2.08;0.90;;;;;;;;;;5054376;27;94824;-74
2022/10/20 01:42:46;;;;;;;1.52;1.05;;;;;;;;;;5044709;27;94329;-74
2022/10/20 01:45:13;;;;;;;2.30;0.80;;;;;;;;;;5053140;27;94801;-74
2022/10/20 01:47:41;;;;;;;2.95;1.00;;;;;;;;;;5052969;27;95537;-74
2022/10/20 01:50:09;;;;;;;2.88;1.10;;;;;;;;;;5053660;27;93784;-74
2022/10/20 01:52:35;;;;;;;2.38;1.02;;;;;;;;;;5052899;27;93471;-74
2022/10/20 01:55:09;;;;;;;1.20;0.80;;;;;;;;;;5035539;27;93754;-74
2022/10/20 01:57:43;;;;;;;3.38;1.02;;;;;;;;;;5048295;27;93398;-74
2022/10/20 02:00:11;;;;;;;1.77;0.98;;;;;;;;;;5055987;27;94060;-74
2022/10/20 02:02:55;;;;;;;1.02;1.00;;;;;;;;;;5055473;27;92186;-74
2022/10/20 02:05:25;;;;;;;1.27;0.90;;;;;;;;;;5054290;27;92595;-74
2022/10/20 02:07:53;;;;;;;2.35;1.17;;;;;;;;;;5038409;27;94066;-74
2022/10/20 02:10:22;;;;;;;2.33;1.00;;;;;;;;;;5053035;27;95805;-74
2022/10/20 02:12:50;;;;;;;2.53;1.00;;;;;;;;;;5047737;27;92791;-74
2022/10/20 02:15:19;;;;;;;4.55;1.17;;;;;;;;;;5050716;27;94110;-74
2022/10/20 02:17:48;;;;;;;1.30;0.90;;;;;;;;;;5053294;27;97110;-74
2022/10/20 02:20:14;;;;;;;1.67;0.90;;;;;;;;;;5053249;27;92484;-74
2022/10/20 02:22:41;;;;;;;1.98;0.93;;;;;;;;;;5055655;27;93452;-74
2022/10/20 02:25:10;;;;;;;2.30;1.23;;;;;;;;;;5054147;27;92551;-74
2022/10/20 02:27:39;;;;;;;1.60;0.98;;;;;;;;;;5054465;27;93316;-74
2022/10/20 02:30:07;;;;;;;1.80;1.20;;;;;;;;;;5053297;27;93412;-74
2022/10/20 02:32:35;;;;;;;1.63;1.08;;;;;;;;;;5016991;27;92622;-74
2022/10/20 02:35:03;;;;;;;2.20;1.10;;;;;;;;;;5051391;27;94934;-74
2022/10/20 02:37:32;;;;;;;1.55;1.00;;;;;;;;;;5053620;27;93634;-75
2022/10/20 02:39:59;;;;;;;1.08;0.70;;;;;;;;;;5023820;27;93977;-74
2022/10/20 02:42:25;;;;;;;1.10;0.70;;;;;;;;;;5034363;27;93409;-74
2022/10/20 02:44:52;;;;;;;1.23;0.90;;;;;;;;;;5055621;27;93382;-74
2022/10/20 02:47:19;;;;;;;2.88;1.20;;;;;;;;;;5053333;27;94612;-74
2022/10/20 02:49:46;;;;;;;1.85;1.10;;;;;;;;;;5033570;27;93413;-74
2022/10/20 02:52:12;;;;;;;1.90;1.10;;;;;;;;;;5045112;27;91866;-75
2022/10/20 02:54:38;;;;;;;3.25;1.20;;;;;;;;;;5053379;27;92493;-74
2022/10/20 02:57:05;;;;;;;2.03;1.23;;;;;;;;;;5034687;27;93387;-74
2022/10/20 02:59:32;;;;;;;2.03;1.23;;;;;;;;;;5035714;27;94879;-74
2022/10/20 03:01:58;;;;;;;2.00;0.98;;;;;;;;;;5031156;27;95995;-74
2022/10/20 03:04:24;;;;;;;1.33;0.93;;;;;;;;;;5052684;27;93806;-74
2022/10/20 03:06:56;;;;;;;2.75;1.10;;;;;;;;;;5056291;27;92481;-74
2022/10/20 03:09:22;;;;;;;1.80;1.00;;;;;;;;;;5035582;27;94407;-75
2022/10/20 03:11:48;;;;;;;1.10;1.00;;;;;;;;;;5052466;27;92470;-75
2022/10/20 03:14:14;;;;;;;1.15;1.05;;;;;;;;;;5054024;27;94264;-75
2022/10/20 03:16:41;;;;;;;4.55;1.25;;;;;;;;;;5036043;27;92735;-74
2022/10/20 03:19:07;;;;;;;0.80;0.70;;;;;;;;;;5051459;27;92455;-74
2022/10/20 03:21:37;;;;;;;1.10;1.00;;;;;;;;;;5052543;27;93107;-74
2022/10/20 03:24:03;;;;;;;1.88;0.98;;;;;;;;;;5049351;27;96082;-75
2022/10/20 03:26:29;;;;;;;3.13;1.10;;;;;;;;;;5053925;27;92482;-75
2022/10/20 03:28:56;;;;;;;1.83;1.10;;;;;;;;;;5055726;27;95384;-74
2022/10/20 03:31:22;;;;;;;3.33;1.20;;;;;;;;;;5053138;27;92471;-74
2022/10/20 03:33:48;;;;;;;1.77;1.30;;;;;;;;;;5051900;27;93175;-74
2022/10/20 03:36:15;;;;;;;4.78;1.70;;;;;;;;;;5026301;27;94232;-74
2022/10/20 03:38:44;;;;;;;1.65;1.10;;;;;;;;;;5056412;27;92527;-74
2022/10/20 03:41:10;;;;;;;8.07;1.50;;;;;;;;;;5040002;27;94185;-74
2022/10/20 03:43:39;;;;;;;1.02;0.90;;;;;;;;;;5056346;27;93171;-74
2022/10/20 03:46:07;;;;;;;2.20;1.20;;;;;;;;;;5055540;27;92512;-74
2022/10/20 03:48:33;;;;;;;1.85;1.20;;;;;;;;;;5057641;27;94765;-74
2022/10/20 03:51:00;;;;;;;1.73;1.15;;;;;;;;;;5038226;27;92459;-74
2022/10/20 03:53:27;;;;;;;0.82;0.82;;;;;;;;;;5055132;27;93078;-74
2022/10/20 03:55:53;;;;;;;2.55;1.20;;;;;;;;;;5056221;27;93425;-74
2022/10/20 03:58:20;;;;;;;1.13;1.02;;;;;;;;;;5054443;27;92588;-74
2022/10/20 04:00:46;;;;;;;2.35;1.05;;;;;;;;;;5054590;27;93082;-74
2022/10/20 04:03:13;;;;;;;1.80;1.00;;;;;;;;;;5055609;27;93559;-74
2022/10/20 04:05:39;;;;;;;1.98;1.00;;;;;;;;;;5054282;27;93650;-74
2022/10/20 04:08:06;;;;;;;2.50;1.13;;;;;;;;;;5053341;27;93565;-74
2022/10/20 04:10:32;;;;;;;2.17;1.10;;;;;;;;;;5059277;27;92481;-74
2022/10/20 04:12:59;;;;;;;3.80;1.13;;;;;;;;;;5037971;27;94869;-74
2022/10/20 04:15:25;;;;;;;3.25;0.95;;;;;;;;;;5053952;27;93777;-74
2022/10/20 04:17:52;;;;;;;4.22;1.10;;;;;;;;;;5054756;27;93436;-74
2022/10/20 04:20:21;;;;;;;2.85;1.20;;;;;;;;;;5037733;27;93115;-74
2022/10/20 04:22:47;;;;;;;2.00;1.13;;;;;;;;;;5055441;27;93711;-74
2022/10/20 04:25:14;;;;;;;0.93;0.90;;;;;;;;;;5034676;27;92602;-74
2022/10/20 04:27:41;;;;;;;2.38;1.10;;;;;;;;;;5053008;27;93115;-74
2022/10/20 04:30:07;;;;;;;1.48;1.02;;;;;;;;;;5050747;27;95635;-74
2022/10/20 04:32:34;;;;;;;2.83;1.20;;;;;;;;;;5059242;27;92744;-74
2022/10/20 04:35:00;;;;;;;2.67;1.30;;;;;;;;;;5054683;27;93425;-74
2022/10/20 04:37:26;;;;;;;2.05;1.20;;;;;;;;;;5051256;27;95734;-74
2022/10/20 04:39:53;;;;;;;1.25;1.20;;;;;;;;;;5051901;27;95637;-74
2022/10/20 04:42:19;;;;;;;1.65;1.10;;;;;;;;;;5054279;27;94532;-74
2022/10/20 04:44:45;;;;;;;1.20;1.10;;;;;;;;;;5055589;27;92511;-74
2022/10/20 04:47:12;;;;;;;1.98;1.15;;;;;;;;;;5054708;27;93246;-74
2022/10/20 04:49:39;;;;;;;2.63;1.20;;;;;;;;;;5037594;27;93374;-74
2022/10/20 04:52:05;;;;;;;2.78;1.23;;;;;;;;;;5037361;27;93046;-74
2022/10/20 04:54:31;;;;;;;1.88;1.27;;;;;;;;;;5057977;27;93221;-74
2022/10/20 04:56:58;;;;;;;1.42;1.25;;;;;;;;;;5056248;27;92581;-74
2022/10/20 04:59:24;;;;;;;1.50;1.40;;;;;;;;;;5054076;27;93164;-74
2022/10/20 05:01:50;;;;;;;2.10;1.10;;;;;;;;;;5034926;27;96170;-74
2022/10/20 05:04:20;;;;;;;2.25;1.08;;;;;;;;;;5054977;27;92483;-74
2022/10/20 05:06:47;;;;;;;;;;;;;;;;;;5056474;27;94534;-74
2022/10/20 05:09:14;;;;;;;2.00;1.10;;;;;;;;;;5049620;27;124276;-74
2022/10/20 05:11:41;;;;;;;1.08;0.98;;;;;;;;;;5029674;27;92444;-74
2022/10/20 05:14:07;;;;;;;3.42;1.30;;;;;;;;;;5037915;27;92833;-74
2022/10/20 05:16:33;;;;;;;3.78;1.00;;;;;;;;;;5058615;27;96526;-74
2022/10/20 05:19:00;;;;;;;1.65;1.20;;;;;;;;;;5039644;27;92882;-74
2022/10/20 05:21:27;;;;;;;1.45;1.20;;;;;;;;;;5035862;27;93441;-74
2022/10/20 05:23:58;;;;;;;1.58;1.10;;;;;;;;;;5055029;27;94339;-74
2022/10/20 05:26:24;;;;;;;;;;;;;;;;;;5053665;27;95353;-74
2022/10/20 05:28:50;;;;;;;1.83;1.20;;;;;;;;;;5054029;27;124940;-74
2022/10/20 05:31:18;;;;;;;4.53;1.30;;;;;;;;;;5055078;27;93615;-74
2022/10/20 05:33:46;;;;;;;3.67;1.45;;;;;;;;;;5054363;27;93467;-74
2022/10/20 05:36:13;;;;;;;2.97;1.60;;;;;;;;;;5053659;27;93474;-74
2022/10/20 05:38:46;;;;;;;2.80;1.65;;;;;;;;;;5040796;27;92517;-74
2022/10/20 05:41:16;;;;;;;1.77;1.10;;;;;;;;;;5055504;27;92392;-74
2022/10/20 05:43:46;;;;;;;6.22;1.70;;;;;;;;;;5037152;27;91825;-74
2022/10/20 05:46:12;;;;;;;4.78;1.27;;;;;;;;;;5054124;27;92414;-74
2022/10/20 05:48:38;;;;;;;1.27;1.00;;;;;;;;;;5051939;27;93395;-74
2022/10/20 05:51:09;;;;;;;6.47;1.47;;;;;;;;;;5034743;27;95129;-71
2022/10/20 05:53:40;;;;;;;5.28;1.40;;;;;;;;;;5053083;27;96639;-71
2022/10/20 05:56:07;;;;;;;6.43;1.40;;;;;;;;;;5054336;27;93429;-71
2022/10/20 05:58:34;;;;;;;3.05;1.20;;;;;;;;;;5037946;27;94199;-71
2022/10/20 06:01:07;;;;;;;1.45;1.20;;;;;;;;;;5034089;27;94577;-72
2022/10/20 06:03:34;;;;;;;1.45;1.00;;;;;;;;;;5052425;27;92554;-71
2022/10/20 06:06:00;;;;;;;1.35;1.20;;;;;;;;;;5055317;27;93060;-72
2022/10/20 06:08:31;;;;;;;1.40;1.20;;;;;;;;;;5053579;27;92755;-74
2022/10/20 06:11:04;;;;;;;5.90;1.65;;;;;;;;;;5053148;27;94087;-73
2022/10/20 06:13:31;;;;;;;10.48;1.20;;;;;;;;;;5033374;27;93122;-74
2022/10/20 06:16:04;;;;;;;3.78;1.13;;;;;;;;;;5033153;27;95780;-74
2022/10/20 06:18:31;;;;;;;3.58;1.38;;;;;;;;;;5037455;27;92462;-75
2022/10/20 06:21:01;;;;;;;2.17;1.35;;;;;;;;;;5038864;27;93324;-74
2022/10/20 06:23:28;;;;;;;3.08;1.33;;;;;;;;;;5053708;27;92463;-74
2022/10/20 06:25:54;;;;;;;1.70;1.40;;;;;;;;;;5054607;27;93029;-75
2022/10/20 06:28:20;;;;;;;1.15;1.00;;;;;;;;;;5052375;27;94463;-73
2022/10/20 06:30:47;;;;;;;2.35;1.40;;;;;;;;;;5034285;28;92548;-73
2022/10/20 06:33:15;;;;;;;1.77;1.50;;;;;;;;;;5048605;27;93168;-73
2022/10/20 06:35:41;;;;;;;2.15;1.45;;;;;;;;;;5054249;27;95950;-73
2022/10/20 06:38:08;;;;;;;2.45;1.20;;;;;;;;;;5031868;27;92472;-73
2022/10/20 06:40:35;;;;;;;6.30;1.08;;;;;;;;;;5034524;27;95484;-73
2022/10/20 06:43:01;;;;;;;3.30;1.67;;;;;;;;;;5033797;27;93697;-73
2022/10/20 06:45:27;;;;;;;1.80;1.38;;;;;;;;;;5052937;27;94075;-73
2022/10/20 06:47:53;;;;;;;2.53;1.77;;;;;;;;;;5052294;27;93384;-74
2022/10/20 06:50:20;;;;;;;2.10;1.40;;;;;;;;;;5036103;27;92530;-73
2022/10/20 06:52:46;;;;;;;2.45;1.10;;;;;;;;;;5034810;27;93076;-73
2022/10/20 06:55:12;;;;;;;2.83;1.42;;;;;;;;;;5035556;27;93720;-75
2022/10/20 06:57:39;;;;;;;1.40;1.30;;;;;;;;;;5053356;27;93347;-73
2022/10/20 07:00:05;;;;;;;4.40;1.80;;;;;;;;;;5030378;27;93038;-74
2022/10/20 07:02:31;;;;;;;6.78;1.60;;;;;;;;;;5031401;27;93131;-74
2022/10/20 07:04:58;;;;;;;4.88;1.30;;;;;;;;;;5050965;27;94949;-73
2022/10/20 07:07:24;;;;;;;1.48;1.00;;;;;;;;;;5051907;27;95605;-74
2022/10/20 07:09:51;;;;;;;6.78;1.20;;;;;;;;;;5054445;27;92420;-74
2022/10/20 07:12:17;;;;;;;1.95;1.10;;;;;;;;;;5032543;27;93107;-73
2022/10/20 07:14:43;;;;;;;4.63;1.13;;;;;;;;;;5050866;27;93442;-75
2022/10/20 07:17:09;;;;;;;2.42;1.27;;;;;;;;;;5032088;27;92810;-73
2022/10/20 07:19:36;;;;;;;4.80;1.23;;;;;;;;;;5050564;27;93496;-73
2022/10/20 07:22:02;;;;;;;3.55;1.70;;;;;;;;;;5051120;27;92673;-73
2022/10/20 07:24:28;;;;;;;3.85;1.88;;;;;;;;;;5054494;27;92442;-74
2022/10/20 07:26:54;;;;;;;15.52;1.70;;;;;;;;;;5036732;27;93161;-74
2022/10/20 07:29:21;;;;;;;2.30;1.20;;;;;;;;;;5050541;27;94985;-74
2022/10/20 07:31:47;;;;;;;5.00;1.38;;;;;;;;;;5033482;27;95551;-74
2022/10/20 07:34:15;;;;;;;6.45;1.73;;;;;;;;;;5054917;27;96759;-74
2022/10/20 07:36:56;;;;;;;3.45;1.48;;;;;;;;;;5021444;27;92618;-74
2022/10/20 07:39:23;;;;;;;3.08;1.42;;;;;;;;;;5054153;27;94092;-74
2022/10/20 07:41:49;;;;;;;5.13;1.40;;;;;;;;;;5054561;27;93164;-73
2022/10/20 07:44:16;;;;;;;1.77;1.40;;;;;;;;;;5049179;27;92521;-73
2022/10/20 07:46:42;;;;;;;1.77;1.30;;;;;;;;;;5054020;27;93091;-73
2022/10/20 07:49:09;;;;;;;3.08;1.25;;;;;;;;;;5053655;27;92541;-73
2022/10/20 07:51:55;;;;;;;4.78;2.38;;;;;;;;;;5037987;27;93185;-73
2022/10/20 07:54:21;;;;;;;5.35;2.83;;;;;;;;;;5020159;27;96135;-73
2022/10/20 07:56:48;;;;;;;8.38;3.13;;;;;;;;;;5052859;27;94066;-73
2022/10/20 07:59:14;;;;;;;5.95;3.33;;;;;;;;;;5052713;27;94061;-73
2022/10/20 08:01:41;;;;;;;9.15;3.20;;;;;;;;;;5052680;27;94669;-76
2022/10/20 08:04:07;;;;;;;18.80;3.97;;;;;;;;;;5035101;27;92435;-78
2022/10/20 08:06:33;;;;;;;7.32;3.00;;;;;;;;;;5050511;27;94137;-73
2022/10/20 08:09:00;;;;;;;7.63;3.42;;;;;;;;;;5037363;27;96382;-74
2022/10/20 08:11:26;;;;;;;9.88;3.58;;;;;;;;;;5027420;28;93122;-74
2022/10/20 08:13:52;;;;;;;10.50;4.20;;;;;;;;;;5051364;27;94331;-74
2022/10/20 08:16:19;;;;;;;6.43;3.65;;;;;;;;;;5053292;27;92406;-74
2022/10/20 08:18:55;;;;;;;11.55;3.83;;;;;;;;;;5049498;27;95093;-74
2022/10/20 08:21:31;;;;;;;6.88;3.67;;;;;;;;;;5053388;27;93321;-74
2022/10/20 08:23:57;;;;;;;6.53;4.03;;;;;;;;;;5052381;27;92442;-73
2022/10/20 08:26:24;;;;;;;7.75;3.30;;;;;;;;;;5057070;27;93200;-72
2022/10/20 08:28:51;;;;;;;17.83;4.00;;;;;;;;;;5056473;27;94455;-74
2022/10/20 08:31:18;;;;;;;7.50;3.50;;;;;;;;;;5059919;27;92568;-74
2022/10/20 08:33:44;;;;;;;6.45;3.35;;;;;;;;;;5033707;27;93691;-74
2022/10/20 08:36:17;;;;;;;5.88;3.38;;;;;;;;;;5046229;27;91812;-74
2022/10/20 08:38:43;;;;;;;7.13;4.00;;;;;;;;;;5056635;27;92532;-75
2022/10/20 08:41:15;;;;;;;11.68;3.72;;;;;;;;;;5053384;27;93441;-74
2022/10/20 08:43:41;;;;;;;5.97;3.85;;;;;;;;;;5053981;27;94856;-74
2022/10/20 08:46:17;;;;;;;8.00;3.60;;;;;;;;;;5055440;27;96135;-74
2022/10/20 08:48:44;;;;;;;10.00;4.07;;;;;;;;;;5052461;27;94450;-74
2022/10/20 08:51:18;;;;;;;8.73;3.92;;;;;;;;;;5037043;27;92598;-73
2022/10/20 08:53:45;;;;;;;15.15;4.22;;;;;;;;;;5052962;27;94133;-74
2022/10/20 08:56:12;;;;;;;11.13;3.85;;;;;;;;;;5036553;27;92471;-73
2022/10/20 08:58:42;;;;;;;8.85;3.30;;;;;;;;;;5053739;27;93757;-74
2022/10/20 09:01:15;;;;;;;6.60;3.75;;;;;;;;;;5057178;27;93909;-74
2022/10/20 09:03:41;;;;;;;9.85;3.55;;;;;;;;;;5045635;27;93246;-74
2022/10/20 09:06:12;;;;;;;5.68;3.50;;;;;;;;;;5056344;27;93492;-74
2022/10/20 09:08:39;;;;;;;7.43;3.75;;;;;;;;;;5037017;27;95917;-74
2022/10/20 09:11:07;;;;;;;6.38;3.70;;;;;;;;;;5033761;27;93074;-75
2022/10/20 09:13:35;;;;;;;6.20;4.32;;;;;;;;;;5037113;27;92782;-73
2022/10/20 09:16:05;;;;;;;12.15;3.70;;;;;;;;;;5055715;27;93246;-74
2022/10/20 09:18:32;;;;;;;11.40;4.10;;;;;;;;;;5037351;27;92951;-73
2022/10/20 09:21:03;;;;;;;11.35;3.88;;;;;;;;;;5056731;27;93488;-74
2022/10/20 09:23:35;;;;;;;9.95;3.90;;;;;;;;;;5056762;27;92532;-74
2022/10/20 09:26:11;;;;;;;8.48;3.63;;;;;;;;;;5056171;27;93120;-72
2022/10/20 09:29:04;;;;;;;8.93;2.90;;;;;;;;;;5055114;27;93019;-73
2022/10/20 09:31:38;;;;;;;;;;;;;;;;;;5056885;27;92419;-77
2022/10/20 09:34:23;;;;;;;9.68;3.80;;;;;;;;;;5054760;27;123340;-74
2022/10/20 09:37:10;;;;;;;11.43;2.95;;;;;;;;;;5055738;27;93411;-73
2022/10/20 09:39:41;;;;;;;7.25;2.00;;;;;;;;;;5058579;27;92355;-74
2022/10/20 09:42:16;;;;;;;5.80;1.65;;;;;;;;;;5056227;27;93794;-73
2022/10/20 09:44:46;;;;;;;10.27;1.90;;;;;;;;;;5056122;27;93325;-74
2022/10/20 09:47:12;;;;;;;;;;;;;;;;;;5055499;27;94131;-74
2022/10/20 09:49:38;;;;;;;8.93;2.30;;;;;;;;;;5055376;27;124080;-74
2022/10/20 09:52:14;;;;;;;7.97;1.77;;;;;;;;;;5039101;27;91814;-76
2022/10/20 09:54:44;;;;;;;7.05;2.17;;;;;;;;;;5037963;27;93680;-73
2022/10/20 09:57:15;;;;;;;5.05;1.92;;;;;;;;;;5053967;27;94980;-74
2022/10/20 09:59:44;;;;;;;4.45;1.70;;;;;;;;;;5057521;27;94893;-73
2022/10/20 10:02:13;;;;;;;6.88;1.95;;;;;;;;;;5055903;27;93368;-74
2022/10/20 10:04:43;;;;;;;5.63;1.88;;;;;;;;;;5055137;27;92905;-73
2022/10/20 10:07:09;;;;;;;;;;;;;;;;;;5036142;27;94597;-72
2022/10/20 10:09:36;;;;;;;3.10;1.70;;;;;;;;;;5055172;27;124042;-73
2022/10/20 10:12:12;;;;;;;3.65;1.90;;;;;;;;;;5055224;27;92567;-73
2022/10/20 10:14:48;;;;;;;6.93;2.03;;;;;;;;;;5056186;27;95041;-73
2022/10/20 10:17:33;;;;;;;5.85;1.80;;;;;;;;;;5053730;27;92612;-74
2022/10/20 10:20:00;;;;;;;6.78;1.60;;;;;;;;;;5056553;27;92592;-74
2022/10/20 10:22:27;;;;;;;23.00;2.05;;;;;;;;;;5039108;27;93121;-73
2022/10/20 10:24:54;;;;;;;3.90;2.35;;;;;;;;;;5050755;27;94898;-73
2022/10/20 10:27:22;;;;;;;4.40;2.20;;;;;;;;;;5054835;27;95482;-73
2022/10/20 10:29:48;;;;;;;5.05;1.85;;;;;;;;;;5056272;27;96734;-73
2022/10/20 10:32:22;;;;;;;7.13;1.83;;;;;;;;;;5053525;27;92696;-74
2022/10/20 10:35:00;;;;;;;4.57;2.13;;;;;;;;;;5034556;27;93116;-73
2022/10/20 10:37:26;;;;;;;6.53;1.98;;;;;;;;;;5037228;27;95933;-74
2022/10/20 10:39:57;;;;;;;5.65;1.77;;;;;;;;;;5037491;27;92482;-75
2022/10/20 10:42:23;;;;;;;5.28;1.90;;;;;;;;;;5036230;27;93127;-73
2022/10/20 10:45:07;;;;;;;5.60;2.10;;;;;;;;;;5057333;27;93478;-73
2022/10/20 10:47:52;;;;;;;3.47;1.75;;;;;;;;;;5017344;28;93174;-73
2022/10/20 10:50:56;;;;;;;7.30;2.10;;;;;;;;;;5033324;28;95841;-73
2022/10/20 10:53:30;;;;;;;3.13;2.10;;;;;;;;;;4933750;28;93831;-74
2022/10/20 10:56:19;;;;;;;7.65;1.88;;;;;;;;;;4948801;28;93348;-74
2022/10/20 10:58:50;;;;;;;3.63;1.70;;;;;;;;;;4950671;28;93482;-74
2022/10/20 11:01:34;;;;;;;8.88;1.98;;;;;;;;;;4955979;28;92507;-74
2022/10/20 11:04:21;;;;;;;4.78;1.75;;;;;;;;;;4950465;28;93445;-75
2022/10/20 11:06:55;;;;;;;2.50;1.77;;;;;;;;;;4928395;28;93625;-76
2022/10/20 11:09:26;;;;;;;3.20;2.10;;;;;;;;;;4941063;28;91780;-76
2022/10/20 11:11:52;;;;;;;6.47;2.20;;;;;;;;;;4936687;28;93455;-75
2022/10/20 11:14:26;;;;;;;6.35;2.15;;;;;;;;;;4935101;28;92642;-75
2022/10/20 11:16:55;;;;;;;4.07;2.00;;;;;;;;;;4951434;28;95409;-74
2022/10/20 11:19:21;;;;;;;4.75;1.90;;;;;;;;;;4952848;28;93450;-73
2022/10/20 11:22:01;;;;;;;6.63;2.22;;;;;;;;;;4953084;28;92510;-74
2022/10/20 11:24:33;;;;;;;2.17;1.90;;;;;;;;;;4995602;27;93141;-73
2022/10/20 11:27:10;;;;;;;2.33;1.83;;;;;;;;;;5051037;27;93360;-74
2022/10/20 11:29:40;;;;;;;2.92;2.05;;;;;;;;;;5034258;27;92467;-73
2022/10/20 11:32:25;;;;;;;3.65;2.15;;;;;;;;;;5056790;27;93098;-74
2022/10/20 11:34:57;;;;;;;3.83;2.20;;;;;;;;;;5054630;27;92094;-73
2022/10/20 11:37:26;;;;;;;2.47;2.25;;;;;;;;;;5054182;27;92727;-73
2022/10/20 11:40:00;;;;;;;2.42;2.20;;;;;;;;;;5035490;27;93528;-70
2022/10/20 11:42:52;;;;;;;4.82;1.80;;;;;;;;;;5046910;27;94809;-72
2022/10/20 11:45:41;;;;;;;4.80;1.77;;;;;;;;;;5053588;27;95488;-72
2022/10/20 11:48:14;;;;;;;4.43;1.92;;;;;;;;;;5053570;27;94117;-73
2022/10/20 11:50:41;;;;;;;3.10;1.65;;;;;;;;;;5052580;27;93991;-73
2022/10/20 11:53:20;;;;;;;7.63;2.17;;;;;;;;;;5053472;27;94047;-74
2022/10/20 11:56:07;;;;;;;4.60;1.80;;;;;;;;;;5053081;27;93554;-74
2022/10/20 11:58:39;;;;;;;5.03;1.58;;;;;;;;;;5057607;27;92772;-74
2022/10/20 12:01:21;;;;;;;4.70;1.95;;;;;;;;;;5058209;27;92702;-74
2022/10/20 12:04:06;;;;;;;1.92;1.45;;;;;;;;;;5056711;27;93076;-74
2022/10/20 12:06:41;;;;;;;5.63;1.63;;;;;;;;;;5036017;27;94195;-74
2022/10/20 12:09:08;;;;;;;4.78;1.70;;;;;;;;;;5047638;27;96210;-74
2022/10/20 12:11:40;;;;;;;4.43;1.58;;;;;;;;;;5057064;27;92650;-74
2022/10/20 12:14:15;;;;;;;4.75;1.67;;;;;;;;;;5056766;27;93076;-74
2022/10/20 12:17:04;;;;;;;4.07;1.40;;;;;;;;;;5058709;27;93169;-75
2022/10/20 12:19:31;;;;;;;2.97;1.67;;;;;;;;;;5036918;28;93110;-74
2022/10/20 12:21:59;;;;;;;2.95;1.20;;;;;;;;;;5037042;28;93324;-72
2022/10/20 12:24:34;;;;;;;3.85;1.90;;;;;;;;;;5053433;27;92530;-73
2022/10/20 12:27:09;;;;;;;3.85;1.83;;;;;;;;;;5036472;27;93705;-75
2022/10/20 12:29:35;;;;;;;4.32;1.88;;;;;;;;;;5037459;28;94469;-75
2022/10/20 12:32:20;;;;;;;5.07;1.85;;;;;;;;;;5047004;27;92400;-75
2022/10/20 12:34:48;;;;;;;5.22;2.60;;;;;;;;;;5053714;27;94857;-73
2022/10/20 12:37:23;;;;;;;7.10;1.90;;;;;;;;;;5055466;27;93574;-74
2022/10/20 12:39:53;;;;;;;6.10;1.85;;;;;;;;;;5059064;27;92710;-75
2022/10/20 12:42:21;;;;;;;3.78;1.88;;;;;;;;;;5055383;27;92988;-75
2022/10/20 12:44:47;;;;;;;5.35;1.85;;;;;;;;;;5057567;27;92472;-75
2022/10/20 12:47:18;;;;;;;2.58;1.65;;;;;;;;;;5056222;27;93078;-76
2022/10/20 12:49:52;;;;;;;2.08;1.90;;;;;;;;;;5056041;27;93410;-76
2022/10/20 12:52:21;;;;;;;4.00;2.08;;;;;;;;;;5050265;27;92115;-75
2022/10/20 12:54:52;;;;;;;7.82;2.38;;;;;;;;;;5055442;27;92381;-75
2022/10/20 12:57:25;;;;;;;4.57;2.17;;;;;;;;;;5054037;27;94490;-76
2022/10/20 12:59:52;;;;;;;3.58;2.10;;;;;;;;;;5054412;27;94941;-75
2022/10/20 13:02:21;;;;;;;4.53;1.98;;;;;;;;;;5040396;27;95540;-75
2022/10/20 13:05:00;;;;;;;7.55;2.45;;;;;;;;;;5056610;27;92499;-75
2022/10/20 13:07:44;;;;;;;3.90;2.08;;;;;;;;;;5054947;27;93847;-75
2022/10/20 13:10:23;;;;;;;3.05;1.92;;;;;;;;;;5052855;27;93671;-74
2022/10/20 13:12:49;;;;;;;5.22;2.13;;;;;;;;;;5042220;27;92419;-76
2022/10/20 13:15:18;;;;;;;7.38;2.17;;;;;;;;;;5035525;27;93085;-75
2022/10/20 13:17:51;;;;;;;4.13;1.75;;;;;;;;;;5051365;27;93754;-75
2022/10/20 13:20:21;;;;;;;2.92;1.90;;;;;;;;;;5050950;27;92634;-75
2022/10/20 13:22:50;;;;;;;15.88;2.00;;;;;;;;;;5056395;27;94302;-76
2022/10/20 13:25:31;;;;;;;4.38;1.85;;;;;;;;;;5057022;27;95994;-76
2022/10/20 13:28:01;;;;;;;2.70;1.63;;;;;;;;;;5049227;27;96708;-77
2022/10/20 13:30:29;;;;;;;3.42;2.15;;;;;;;;;;5055907;27;93777;-76
2022/10/20 13:32:58;;;;;;;2.28;1.70;;;;;;;;;;5037199;27;92488;-75
2022/10/20 13:35:49;;;;;;;5.50;1.80;;;;;;;;;;5056443;27;93416;-76
2022/10/20 13:38:19;;;;;;;10.00;1.83;;;;;;;;;;5036886;27;94591;-75
2022/10/20 13:40:54;;;;;;;4.45;2.03;;;;;;;;;;5030565;28;92459;-75
2022/10/20 13:43:39;;;;;;;18.58;6.78;;;;;;;;;;5036949;28;93166;-77
2022/10/20 13:46:12;;;;;;;11.27;3.15;;;;;;;;;;5054967;27;93806;-75
2022/10/20 13:48:45;;;;;;;8.30;3.65;;;;;;;;;;5057699;27;92571;-75
2022/10/20 13:51:22;;;;;;;6.25;3.10;;;;;;;;;;5054571;27;96449;-75
2022/10/20 13:53:51;;;;;;;9.38;2.85;;;;;;;;;;5054621;27;92786;-74
2022/10/20 13:56:27;;;;;;;4.82;2.70;;;;;;;;;;5056419;27;93291;-75
2022/10/20 13:59:01;;;;;;;6.90;3.20;;;;;;;;;;5054448;27;93434;-75
2022/10/20 14:01:33;;;;;;;7.60;2.63;;;;;;;;;;5054805;27;94558;-76
2022/10/20 14:03:59;;;;;;;4.47;2.45;;;;;;;;;;5034281;28;93427;-75
2022/10/20 14:06:26;;;;;;;4.70;2.55;;;;;;;;;;5046584;27;93794;-75
2022/10/20 14:08:56;;;;;;;9.48;2.88;;;;;;;;;;5056121;27;91853;-75
2022/10/20 14:11:28;;;;;;;5.25;2.38;;;;;;;;;;5051166;27;92393;-75
2022/10/20 14:13:55;;;;;;;5.95;2.60;;;;;;;;;;5054730;27;92826;-75
2022/10/20 14:16:24;;;;;;;6.03;2.75;;;;;;;;;;5051832;27;95084;-75
2022/10/20 14:19:00;;;;;;;6.00;2.30;;;;;;;;;;5053955;27;93416;-75
2022/10/20 14:21:27;;;;;;;2.72;2.10;;;;;;;;;;5035466;28;92461;-75
2022/10/20 14:23:55;;;;;;;6.70;2.20;;;;;;;;;;5054206;27;95927;-75
2022/10/20 14:26:23;;;;;;;5.05;2.17;;;;;;;;;;5050584;27;94400;-75
2022/10/20 14:28:50;;;;;;;2.95;2.50;;;;;;;;;;5053738;27;92555;-75
2022/10/20 14:31:19;;;;;;;3.42;2.05;;;;;;;;;;5057493;27;93138;-75
2022/10/20 14:33:46;;;;;;;4.57;2.03;;;;;;;;;;5036265;28;91775;-75
2022/10/20 14:36:18;;;;;;;2.30;1.80;;;;;;;;;;5043554;27;93570;-75
2022/10/20 14:38:51;;;;;;;3.10;2.10;;;;;;;;;;5046456;27;93330;-74
2022/10/20 14:41:25;;;;;;;2.67;2.15;;;;;;;;;;5048405;27;94821;-74
2022/10/20 14:43:54;;;;;;;4.63;2.35;;;;;;;;;;5053773;27;96051;-74
2022/10/20 14:46:32;;;;;;;4.15;1.70;;;;;;;;;;5053349;27;94789;-74
2022/10/20 14:48:59;;;;;;;3.88;1.60;;;;;;;;;;5054872;27;92420;-74
2022/10/20 14:51:43;;;;;;;3.15;2.13;;;;;;;;;;5034596;27;94266;-75
2022/10/20 14:54:15;;;;;;;3.72;2.03;;;;;;;;;;5057140;27;93519;-75
2022/10/20 14:57:02;;;;;;;4.45;2.05;;;;;;;;;;5051373;27;94460;-75
2022/10/20 14:59:30;;;;;;;3.70;1.90;;;;;;;;;;5003903;27;92652;-75
2022/10/20 15:02:07;;;;;;;5.25;2.33;;;;;;;;;;5053311;27;92424;-75